Forside
METAR-TAF:

METAR-TAF

Lufthavne :

Sallisaw, Oklahoma, USA

Breddekreds: 35-26-17N, længdekreds: 094-48-10W, højde: 161 m

Aktuelle vejr

Denne rapport blev lavet for 1 time og 11 minutter siden, kl. 21:35 UTC
Vind 4 kt fra østsydøst
Temperatur 21°C
Fugtighed 28%
Tryk 1017 hPa
Sigt: 16.1 km
skyfri

METAR: KJSV 162135Z AUTO 11004KT 10SM CLR 21/02 A3004 RMK AO2

Tid: 16:46 (22:46 UTC)


TAF: fraværende

Vejrobservationer og prognoser fra mere end 4000 lufthavne (METAR og TAF).

De gule og røde prikker repræsenterer de meteorologiske stationer.

Flyt musen over at se navnet på stationen.

Så klik over at se vejr observationer og prognoser.

At skifte det kort: Klik på de grønne knapper med et sort kors for at zoome ind; på den grønne knap med en bindestreg for at zoome ud; eller på de grønne pile for tilstødende kort.


METAR-TAF: